Hereford, TX

12:14 PM CDT on July 27, 2017 (GMT -0500)
Hereford Municipal

Weather History for KHRX - August, 2013

Change the Weather History Date:

Monday, August 5, 2013

  Actual Average (KCVN) Record (KCVN)
Temperature  
Mean Temperature 80 °F -  
Max Temperature 94 °F 88 °F 105 °F (1937)
Min Temperature 66 °F 62 °F 55 °F (1949)
Cooling Degree Days 15    
Growing Degree Days 30 (Base 50)    
Moisture  
Dew Point 56 °F    
Average Humidity 45    
Maximum Humidity 79    
Minimum Humidity 22    
Precipitation  
Precipitation 0.00 in - - ()
Sea Level Pressure  
Sea Level Pressure 30.06 in    
Wind  
Wind Speed 9 mph (SSW)    
Max Wind Speed 18 mph    
Max Gust Speed 25 mph    
Visibility 10 miles    
Events      
Averages and records for this station are not official NWS values.
T = Trace of Precipitation, MM = Missing Value Source: NWS Daily Summary

Daily Weather History Graph

Daily Weather History Graph

Search for Another Location

Airport or City:

Trip Planner

Search our weather history database for the weather conditions in past years. The results will help you decide how hot, cold, wet, or windy it might be!

Date:

Astronomy

Aug. 05, 2013 Rise Set
Actual Time 7:02 AM CDT 8:47 PM CDT
Civil Twilight 6:34 AM CDT 9:15 PM CDT
Nautical Twilight 6:01 AM CDT 9:48 PM CDT
Astronomical Twilight 5:26 AM CDT 10:23 PM CDT
Moon 5:58 AM CDT (8/5) 7:51 PM CDT (8/5)
Length of Visible Light 14h 40m
Length of Day
13h 45m
Waning Crescent, 1% of the Moon is Illuminated
Aug 5
Waning Crescent
Aug 6
New
Aug 14
First Quarter
Aug 20
Full
Aug 28
Last Quarter

Hourly Weather History & Observations

Time (CDT) Temp. Heat Index Dew Point Humidity Pressure Visibility Wind Dir Wind Speed Gust Speed Precip Events Conditions
12:15 AM 76.1 °F - 56.5 °F 50% 30.11 in 10.0 mi South 9.2 mph - N/A   Scattered Clouds
12:35 AM 75.2 °F - 56.3 °F 52% 30.11 in 10.0 mi South 9.2 mph - N/A   Scattered Clouds
12:55 AM 75.6 °F - 57.0 °F 52% 30.11 in 10.0 mi South 8.1 mph - N/A   Clear
1:15 AM 75.2 °F - 57.2 °F 53% 30.11 in 10.0 mi South 6.9 mph - N/A   Clear
1:35 AM 74.8 °F - 57.4 °F 54% 30.10 in 10.0 mi South 9.2 mph - N/A   Clear
1:55 AM 74.3 °F - 57.7 °F 56% 30.10 in 10.0 mi South 9.2 mph - N/A   Clear
2:15 AM 73.9 °F - 58.1 °F 58% 30.10 in 10.0 mi South 8.1 mph - N/A   Clear
2:35 AM 73.4 °F - 58.1 °F 59% 30.09 in 10.0 mi South 8.1 mph - N/A   Clear
2:55 AM 73.4 °F - 58.6 °F 60% 30.09 in 10.0 mi South 10.4 mph - N/A   Clear
3:15 AM 72.9 °F - 58.8 °F 61% 30.09 in 10.0 mi South 9.2 mph - N/A   Clear
3:35 AM 73.0 °F - 59.0 °F 61% 30.09 in 10.0 mi South 10.4 mph - N/A   Clear
3:55 AM 72.7 °F - 59.0 °F 62% 30.10 in 10.0 mi South 8.1 mph - N/A   Clear
4:15 AM 72.5 °F - 59.0 °F 62% 30.09 in 10.0 mi South 9.2 mph - N/A   Clear
4:35 AM 72.5 °F - 58.5 °F 61% 30.09 in 10.0 mi SSW 8.1 mph - N/A   Clear
4:55 AM 72.0 °F - 58.3 °F 62% 30.10 in 10.0 mi SSW 9.2 mph - N/A   Clear
5:15 AM 69.8 °F - 58.3 °F 67% 30.09 in 10.0 mi SSW 5.8 mph - N/A   Clear
5:35 AM 70.3 °F - 57.9 °F 65% 30.10 in 10.0 mi SSW 5.8 mph - N/A   Clear
5:55 AM 69.4 °F - 58.1 °F 67% 30.11 in 10.0 mi SSW 8.1 mph - N/A   Clear
6:15 AM 69.1 °F - 58.3 °F 68% 30.12 in 10.0 mi SW 5.8 mph - N/A   Clear
6:35 AM 69.6 °F - 58.5 °F 68% 30.12 in 10.0 mi SSW 5.8 mph - N/A   Mostly Cloudy
6:55 AM 69.8 °F - 58.5 °F 67% 30.13 in 10.0 mi WSW 6.9 mph - N/A   Overcast
7:15 AM 66.9 °F - 59.0 °F 76% 30.13 in 10.0 mi West 4.6 mph - N/A   Scattered Clouds
7:35 AM 66.4 °F - 59.5 °F 79% 30.13 in 10.0 mi Calm Calm - N/A   Clear
7:55 AM 68.0 °F - 60.1 °F 76% 30.13 in 10.0 mi Calm Calm - N/A   Clear
8:15 AM 71.6 °F - 59.4 °F 65% 30.13 in 10.0 mi SW 4.6 mph - N/A   Clear
8:35 AM 73.9 °F - 58.3 °F 58% 30.13 in 10.0 mi West 6.9 mph - N/A   Clear
8:55 AM 75.0 °F - 58.3 °F 56% 30.13 in 10.0 mi SW 9.2 mph - N/A   Clear
9:15 AM 78.1 °F - 58.1 °F 50% 30.13 in 10.0 mi SW 10.4 mph - N/A   Clear
9:35 AM 80.1 °F 80.6 °F 58.3 °F 47% 30.13 in 10.0 mi SW 12.7 mph 19.6 mph N/A   Clear
9:55 AM 81.5 °F 81.7 °F 58.6 °F 46% 30.12 in 10.0 mi SW 15.0 mph 19.6 mph N/A   Clear
10:15 AM 82.9 °F 83.0 °F 59.4 °F 45% 30.12 in 10.0 mi SW 17.3 mph 20.7 mph N/A   Clear
10:35 AM 83.8 °F 83.6 °F 59.2 °F 43% 30.11 in 10.0 mi SW 17.3 mph 21.9 mph N/A   Clear
10:55 AM 84.4 °F 84.0 °F 58.8 °F 42% 30.11 in 10.0 mi SSW 17.3 mph 24.2 mph N/A   Clear
11:15 AM 86.0 °F 85.4 °F 59.0 °F 40% 30.11 in 10.0 mi SSW 18.4 mph 21.9 mph N/A   Clear
11:35 AM 86.4 °F 85.4 °F 58.3 °F 38% 30.11 in 10.0 mi SW 16.1 mph 21.9 mph N/A   Clear
11:55 AM 87.1 °F 86.5 °F 59.4 °F 39% 30.10 in 10.0 mi SSW 13.8 mph 23.0 mph N/A   Clear
12:15 PM 87.3 °F 86.7 °F 59.2 °F 39% 30.10 in 10.0 mi SSW 15.0 mph 24.2 mph N/A   Clear
12:35 PM 88.2 °F 87.3 °F 58.6 °F 37% 30.10 in 10.0 mi SSW 16.1 mph 23.0 mph N/A   Clear
12:55 PM 88.7 °F 87.8 °F 58.8 °F 36% 30.09 in 10.0 mi SSW 13.8 mph 24.2 mph N/A   Clear
1:15 PM 89.2 °F 87.7 °F 57.0 °F 33% 30.09 in 10.0 mi SSW 9.2 mph 21.9 mph N/A   Clear
1:35 PM 89.8 °F 88.4 °F 56.8 °F 33% 30.08 in 10.0 mi SSW 10.4 mph 24.2 mph N/A   Clear
1:55 PM 90.5 °F 89.0 °F 56.8 °F 32% 30.08 in 10.0 mi South 11.5 mph 25.3 mph N/A   Clear
2:15 PM 90.9 °F 89.2 °F 56.3 °F 31% 30.07 in 10.0 mi SW 13.8 mph 17.3 mph N/A   Clear
2:35 PM 92.3 °F 90.7 °F 56.5 °F 30% 30.06 in 10.0 mi South 10.4 mph 17.3 mph N/A   Clear
2:55 PM 92.3 °F 90.5 °F 55.6 °F 29% 30.06 in 10.0 mi South 10.4 mph 19.6 mph N/A   Clear
3:15 PM 92.5 °F 90.7 °F 55.8 °F 29% 30.05 in 10.0 mi SSE 10.4 mph 18.4 mph N/A   Clear
3:35 PM 93.2 °F 91.0 °F 55.0 °F 27% 30.04 in 10.0 mi South 9.2 mph 17.3 mph N/A   Clear
3:55 PM 94.3 °F 92.4 °F 55.4 °F 27% 30.04 in 10.0 mi SSW 9.2 mph - N/A   Clear
4:15 PM 93.7 °F 91.7 °F 55.2 °F 27% 30.03 in 10.0 mi South 10.4 mph 16.1 mph N/A   Clear
4:35 PM 94.5 °F 92.6 °F 55.2 °F 27% 30.02 in 10.0 mi South 11.5 mph 17.3 mph N/A   Clear
4:55 PM 93.7 °F 91.4 °F 54.3 °F 26% 30.01 in 10.0 mi SSE 8.1 mph - N/A   Clear
5:15 PM 93.9 °F 92.0 °F 55.0 °F 27% 30.00 in 10.0 mi South 10.4 mph - N/A   Clear
5:35 PM 93.7 °F 91.4 °F 54.1 °F 26% 30.00 in 10.0 mi SSE 10.4 mph 18.4 mph N/A   Clear
5:55 PM 93.7 °F 91.4 °F 53.8 °F 26% 29.99 in 10.0 mi South 12.7 mph 17.3 mph N/A   Clear
6:15 PM 93.6 °F 91.2 °F 53.4 °F 26% 29.99 in 10.0 mi South 12.7 mph 17.3 mph N/A   Clear
6:35 PM 93.0 °F 90.6 °F 53.2 °F 26% 29.99 in 10.0 mi South 11.5 mph - N/A   Clear
6:55 PM 92.3 °F - 52.5 °F 26% 29.98 in 10.0 mi South 12.7 mph 18.4 mph N/A   Clear
7:15 PM 91.4 °F - 49.8 °F 24% 29.98 in 10.0 mi South 11.5 mph - N/A   Clear
7:35 PM 90.9 °F - 46.9 °F 22% 29.97 in 10.0 mi South 13.8 mph - N/A   Clear
7:55 PM 90.0 °F - 46.9 °F 23% 29.96 in 10.0 mi South 12.7 mph 18.4 mph N/A   Clear
8:15 PM 88.7 °F - 46.9 °F 24% 29.96 in 10.0 mi South 9.2 mph - N/A   Clear
8:35 PM 86.0 °F - 48.7 °F 27% 29.97 in 10.0 mi South 6.9 mph - N/A   Clear
8:55 PM 83.3 °F - 50.9 °F 32% 29.96 in 10.0 mi South 8.1 mph - N/A   Clear
9:15 PM 80.6 °F - 52.9 °F 38% 29.96 in 10.0 mi SSE 8.1 mph - N/A   Clear
9:35 PM 79.9 °F - 53.8 °F 40% 29.96 in 10.0 mi SSE 9.2 mph - N/A   Clear
9:55 PM 79.3 °F - 54.1 °F 42% 29.96 in 10.0 mi SSE 8.1 mph - N/A   Clear
10:15 PM 78.8 °F - 54.0 °F 42% 29.98 in 10.0 mi South 8.1 mph - N/A   Clear
10:35 PM 79.5 °F - 53.8 °F 41% 29.98 in 10.0 mi South 6.9 mph - N/A   Clear
10:55 PM 77.4 °F - 54.5 °F 45% 29.99 in 10.0 mi South 8.1 mph - N/A   Clear
11:15 PM 76.1 °F - 54.7 °F 47% 29.99 in 10.0 mi South 6.9 mph - N/A   Clear
11:35 PM 75.4 °F - 54.9 °F 49% 29.99 in 10.0 mi South 5.8 mph - N/A   Clear
11:55 PM 73.4 °F - 55.6 °F 54% 30.00 in 10.0 mi South 9.2 mph - N/A   Clear